Time;durP1;ratioP1;P1;durP2;ratioP2;P2;SDS_P1;SDS_P2;PMS_P1;PMS_P2;Temp;Humidity;BMP_temperature;BMP_pressure;BME280_temperature;BME280_humidity;BME280_pressure;Samples;Min_cycle;Max_cycle;Signal;HPM_P1;HPM_P2
2021/09/14 00:00:52;;;;;;;12.10;9.05;;;;;;;19.48;64.40;100491.00;4898633;28;99521;-80
2021/09/14 00:03:18;;;;;;;9.52;8.20;;;;;;;19.47;64.34;100491.09;4915867;28;97500;-80
2021/09/14 00:05:43;;;;;;;11.68;10.20;;;;;;;19.46;64.27;100490.25;4899555;28;96639;-80
2021/09/14 00:08:09;;;;;;;15.10;8.73;;;;;;;19.38;64.43;100490.78;4931315;28;96812;-81
2021/09/14 00:10:35;;;;;;;13.43;9.18;;;;;;;19.27;64.82;100495.97;4914397;28;98332;-80
2021/09/14 00:13:00;;;;;;;10.77;7.97;;;;;;;19.36;64.43;100489.16;4914776;28;97950;-81
2021/09/14 00:15:25;;;;;;;12.68;9.07;;;;;;;19.29;64.46;100486.09;4898993;28;96663;-81
2021/09/14 00:17:51;;;;;;;9.93;8.95;;;;;;;19.34;64.65;100494.59;4898953;28;96956;-80
2021/09/14 00:20:17;;;;;;;12.10;9.45;;;;;;;19.23;65.00;100495.34;4898316;28;101990;-80
2021/09/14 00:22:42;;;;;;;10.13;9.25;;;;;;;19.13;64.88;100499.56;4898779;28;98448;-80
2021/09/14 00:25:08;;;;;;;9.60;8.63;;;;;;;19.10;65.26;100498.91;4898639;28;96555;-81
2021/09/14 00:27:34;;;;;;;9.90;8.07;;;;;;;19.03;65.43;100489.66;4916484;28;96859;-80
2021/09/14 00:29:59;;;;;;;12.27;8.52;;;;;;;19.06;65.54;100500.09;4914441;28;98085;-81
2021/09/14 00:32:25;;;;;;;13.43;8.43;;;;;;;18.98;65.62;100498.75;4898438;28;101108;-80
2021/09/14 00:34:50;;;;;;;12.32;8.57;;;;;;;18.98;65.51;100497.91;4898474;28;96528;-80
2021/09/14 00:37:17;;;;;;;9.80;7.65;;;;;;;19.14;64.27;100492.41;4898705;28;96975;-80
2021/09/14 00:39:43;;;;;;;10.63;9.27;;;;;;;18.95;65.10;100498.97;4914575;28;98536;-80
2021/09/14 00:42:08;;;;;;;14.95;9.10;;;;;;;18.90;65.30;100478.94;4898133;28;101683;-80
2021/09/14 00:44:34;;;;;;;11.93;8.63;;;;;;;18.87;65.94;100490.63;4898887;28;96708;-80
2021/09/14 00:46:59;;;;;;;9.63;8.75;;;;;;;18.86;65.98;100496.91;4882612;28;96923;-80
2021/09/14 00:49:25;;;;;;;9.75;8.55;;;;;;;18.87;66.36;100495.13;4898453;28;97934;-80
2021/09/14 00:51:51;;;;;;;9.60;8.38;;;;;;;18.84;66.08;100496.16;4898409;28;101536;-80
2021/09/14 00:54:17;;;;;;;10.10;8.77;;;;;;;18.84;66.23;100492.66;4914310;28;96663;-80
2021/09/14 00:56:43;;;;;;;12.75;8.60;;;;;;;18.82;66.27;100495.44;4898518;28;96913;-80
2021/09/14 00:59:10;;;;;;;9.75;8.85;;;;;;;18.74;66.25;100479.97;4929641;28;98066;-81
2021/09/14 01:01:36;;;;;;;9.25;8.35;;;;;;;18.81;66.10;100490.19;4913733;28;100954;-80
2021/09/14 01:04:03;;;;;;;9.75;8.55;;;;;;;18.85;66.03;100494.34;4914225;28;96659;-81
2021/09/14 01:06:28;;;;;;;8.73;7.28;;;;;;;18.81;65.83;100485.72;4914762;28;96919;-81
2021/09/14 01:08:55;;;;;;;10.68;8.32;;;;;;;18.80;66.03;100494.66;4914002;28;101526;-80
2021/09/14 01:11:21;;;;;;;9.80;7.97;;;;;;;18.72;66.60;100489.81;4929928;28;101226;-81
2021/09/14 01:13:47;;;;;;;10.98;7.88;;;;;;;18.69;66.70;100489.16;4898218;28;96604;-80
2021/09/14 01:16:13;;;;;;;10.90;8.82;;;;;;;18.58;66.61;100481.03;4916050;28;96950;-80
2021/09/14 01:18:40;;;;;;;8.80;7.95;;;;;;;18.69;66.42;100490.00;4933316;28;101941;-80
2021/09/14 01:21:06;;;;;;;9.15;8.20;;;;;;;18.68;66.51;100488.31;4933194;28;98314;-80
2021/09/14 01:23:32;;;;;;;10.57;8.27;;;;;;;18.64;66.84;100484.13;4933389;28;96726;-80
2021/09/14 01:26:00;;;;;;;13.20;8.20;;;;;;;18.71;66.42;100484.59;4886017;28;96872;-81
2021/09/14 01:28:26;;;;;;;18.00;8.50;;;;;;;18.58;66.64;100473.91;4917151;28;101367;-80
2021/09/14 01:30:52;;;;;;;11.85;8.50;;;;;;;18.55;66.98;100484.72;4917143;28;100994;-80
2021/09/14 01:33:18;;;;;;;8.75;7.28;;;;;;;18.47;66.85;100479.06;4901202;28;96892;-80
2021/09/14 01:35:44;;;;;;;9.38;8.45;;;;;;;18.60;66.56;100489.78;4901404;28;96845;-80
2021/09/14 01:38:12;;;;;;;11.63;8.10;;;;;;;18.53;66.84;100479.53;4901129;28;101245;-80
2021/09/14 01:40:39;;;;;;;14.27;8.68;;;;;;;18.55;66.82;100487.41;4901394;28;101836;-80
2021/09/14 01:43:07;;;;;;;10.68;8.32;;;;;;;18.48;67.10;100484.28;4917030;28;96750;-80
2021/09/14 01:45:33;;;;;;;11.13;8.40;;;;;;;18.49;66.50;100483.31;4901276;28;96951;-80
2021/09/14 01:48:01;;;;;;;12.55;8.20;;;;;;;18.38;67.07;100479.66;4900478;28;101238;-81
2021/09/14 01:50:27;;;;;;;9.60;7.38;;;;;;;18.30;66.96;100470.38;4900831;28;100376;-80
2021/09/14 01:52:53;;;;;;;11.07;8.80;;;;;;;18.47;66.52;100492.34;4901098;28;96679;-80
2021/09/14 01:55:21;;;;;;;9.85;8.48;;;;;;;18.30;67.00;100488.97;4901103;28;96951;-80
2021/09/14 01:57:50;;;;;;;12.63;8.20;;;;;;;18.33;66.67;100496.75;4900489;28;102076;-80
2021/09/14 02:00:41;;;;;;;10.73;8.52;;;;;;;18.29;67.11;100499.69;4900594;28;101701;-80
2021/09/14 02:23:40;;;;;;;15.25;7.65;;;;;;;18.17;66.78;100503.13;4901628;28;101405;-80
2021/09/14 02:45:05;;;;;;;9.38;8.43;;;;;;;17.81;66.37;100485.88;4917957;28;101160;-80
2021/09/14 02:58:40;;;;;;;11.75;8.07;;;;;;;17.61;67.03;100497.69;4902131;28;96598;-80
2021/09/14 03:01:09;;;;;;;9.43;8.20;;;;;;;17.54;67.00;100496.31;4901340;28;96958;-80
2021/09/14 03:03:37;;;;;;;11.90;8.13;;;;;;;17.56;67.09;100497.94;4915706;28;98017;-80
2021/09/14 03:06:03;;;;;;;8.95;7.72;;;;;;;17.50;67.37;100495.66;4915318;28;101656;-80
2021/09/14 03:08:30;;;;;;;11.65;8.40;;;;;;;17.44;67.28;100498.69;4899363;28;96676;-80
2021/09/14 03:10:56;;;;;;;11.18;7.78;;;;;;;17.34;67.52;100481.63;4884107;28;96894;-80
2021/09/14 03:13:21;;;;;;;8.68;7.88;;;;;;;17.38;67.63;100489.28;4899510;28;100090;-80
2021/09/14 03:15:48;;;;;;;9.90;7.75;;;;;;;17.35;67.70;100493.94;4899467;28;101209;-80
2021/09/14 03:18:13;;;;;;;8.18;7.18;;;;;;;17.36;67.75;100499.13;4899466;28;96585;-80
2021/09/14 03:20:40;;;;;;;8.98;8.07;;;;;;;17.35;67.44;100499.25;4899668;28;96881;-80
2021/09/14 03:23:06;;;;;;;9.80;8.88;;;;;;;17.14;67.68;100478.34;4899131;28;102008;-80
2021/09/14 03:25:31;;;;;;;11.55;8.88;;;;;;;17.19;67.89;100489.53;4915640;28;101097;-80
2021/09/14 03:27:57;;;;;;;9.63;8.57;;;;;;;17.14;67.89;100491.59;4899548;28;97094;-80
2021/09/14 03:30:24;;;;;;;9.57;8.65;;;;;;;17.12;67.92;100489.97;4899723;28;96908;-81
2021/09/14 03:32:50;;;;;;;12.65;8.25;;;;;;;17.17;67.77;100494.06;4898699;28;101635;-80
2021/09/14 03:35:15;;;;;;;11.85;8.15;;;;;;;17.21;67.45;100492.09;4898970;28;101723;-80
2021/09/14 03:37:41;;;;;;;12.88;8.23;;;;;;;17.17;67.59;100493.22;4914896;28;96583;-80
2021/09/14 03:40:07;;;;;;;11.40;8.27;;;;;;;17.23;67.64;100492.88;4898585;28;96671;-80
2021/09/14 03:42:34;;;;;;;13.43;8.75;;;;;;;17.10;67.64;100491.84;4915009;28;102071;-80
2021/09/14 03:45:00;;;;;;;11.68;8.65;;;;;;;17.03;67.57;100494.03;4898985;28;102031;-80
2021/09/14 03:47:28;;;;;;;9.20;8.30;;;;;;;16.94;68.00;100478.66;4931470;28;96648;-80
2021/09/14 03:49:54;;;;;;;12.57;8.45;;;;;;;16.93;68.01;100488.41;4915860;28;97009;-80
2021/09/14 03:52:19;;;;;;;12.07;8.75;;;;;;;16.98;68.09;100488.13;4914737;28;101292;-81
2021/09/14 03:54:46;;;;;;;12.98;8.70;;;;;;;17.04;67.68;100494.88;4899037;28;100576;-80
2021/09/14 03:57:11;;;;;;;15.75;9.50;;;;;;;16.97;67.85;100484.63;4898628;28;96529;-80
2021/09/14 03:59:40;;;;;;;14.82;9.30;;;;;;;16.97;68.10;100484.63;4898554;28;97105;-80
2021/09/14 04:02:14;;;;;;;19.75;9.30;;;;;;;17.05;67.76;100486.84;4898972;28;101175;-80
2021/09/14 04:10:21;;;;;;;13.93;9.23;;;;;;;17.00;68.12;100488.06;4838099;29;96851;-80
2021/09/14 04:12:47;;;;;;;13.82;8.95;;;;;;;17.00;68.06;100493.34;4880279;28;101868;-80
2021/09/14 04:15:12;;;;;;;13.65;9.88;;;;;;;16.98;68.27;100488.97;4898789;28;99898;-80
2021/09/14 04:17:38;;;;;;;11.98;9.40;;;;;;;16.86;68.14;100488.84;4914937;28;97034;-80
2021/09/14 04:20:05;;;;;;;11.05;9.23;;;;;;;16.88;68.19;100494.91;4898723;28;96886;-80
2021/09/14 04:22:33;;;;;;;17.40;9.63;;;;;;;16.92;68.16;100486.69;4929757;28;101508;-80
2021/09/14 04:25:04;;;;;;;13.30;9.98;;;;;;;16.88;67.95;100474.56;4883571;28;101273;-80
2021/09/14 04:27:29;;;;;;;13.95;9.32;;;;;;;16.80;68.29;100487.41;4898667;28;96664;-80
2021/09/14 04:29:55;;;;;;;14.90;9.55;;;;;;;16.65;68.34;100475.00;4899076;28;96891;-80
2021/09/14 04:32:20;;;;;;;12.10;9.23;;;;;;;16.75;68.14;100482.34;4898239;28;101271;-80
2021/09/14 04:34:46;;;;;;;14.00;9.23;;;;;;;16.67;68.74;100487.22;4898301;28;101482;-80
2021/09/14 04:37:12;;;;;;;12.98;9.82;;;;;;;16.71;68.82;100493.19;4930599;28;96616;-80
2021/09/14 04:39:37;;;;;;;14.95;9.65;;;;;;;16.76;68.71;100488.53;4899122;28;96928;-80
2021/09/14 04:42:03;;;;;;;14.45;9.55;;;;;;;16.83;68.35;100492.50;4898023;28;101545;-80
2021/09/14 04:44:29;;;;;;;13.90;9.75;;;;;;;16.80;68.11;100490.03;4930202;28;101820;-80
2021/09/14 04:46:57;;;;;;;15.63;10.10;;;;;;;16.94;67.85;100491.91;4898025;28;96618;-80
2021/09/14 04:49:22;;;;;;;10.95;9.82;;;;;;;16.75;68.30;100478.81;4898640;28;96994;-80
2021/09/14 04:51:48;;;;;;;13.20;8.93;;;;;;;16.87;67.95;100491.41;4901514;28;101440;-80
2021/09/14 04:54:13;;;;;;;14.88;9.60;;;;;;;16.86;68.38;100483.53;4901274;28;101983;-80
2021/09/14 04:56:39;;;;;;;15.57;10.65;;;;;;;17.01;66.68;100485.28;4918116;28;96677;-80
2021/09/14 04:59:04;;;;;;;14.40;10.18;;;;;;;17.05;67.11;100489.50;4917346;28;96964;-80
2021/09/14 05:01:30;;;;;;;11.65;9.18;;;;;;;17.07;67.03;100498.19;4885321;28;101381;-80
2021/09/14 05:03:56;;;;;;;11.68;10.50;;;;;;;17.06;66.91;100493.00;4901594;28;100917;-80
2021/09/14 05:06:24;;;;;;;15.45;9.98;;;;;;;17.13;66.67;100492.56;4917601;28;96628;-80
2021/09/14 05:08:51;;;;;;;12.30;9.23;;;;;;;17.05;66.45;100484.19;4901668;28;96743;-80
2021/09/14 05:11:17;;;;;;;15.60;9.85;;;;;;;16.94;66.51;100474.19;4900328;28;101509;-80
2021/09/14 05:13:43;;;;;;;14.35;9.18;;;;;;;17.20;66.42;100493.03;4901215;28;101429;-80
2021/09/14 05:16:09;;;;;;;10.40;9.35;;;;;;;17.27;65.93;100502.34;4917569;28;96588;-80
2021/09/14 05:18:53;;;;;;;11.25;9.80;;;;;;;17.13;66.31;100494.34;4901647;28;96622;-80
2021/09/14 05:21:18;;;;;;;11.38;10.00;;;;;;;17.19;66.35;100494.84;4901183;28;98530;-80
2021/09/14 05:23:46;;;;;;;15.73;9.68;;;;;;;17.17;66.33;100486.13;4917078;28;101763;-80
2021/09/14 05:26:14;;;;;;;14.38;9.55;;;;;;;17.20;66.65;100488.59;4885308;28;96547;-80
2021/09/14 05:28:42;;;;;;;13.13;10.15;;;;;;;17.41;65.72;100483.81;4885850;28;96871;-80
2021/09/14 05:31:08;;;;;;;11.60;9.13;;;;;;;17.51;65.53;100492.09;4916259;28;101668;-81
2021/09/14 05:33:35;;;;;;;22.65;11.10;;;;;;;17.47;65.58;100484.38;4901059;28;98600;-80
2021/09/14 05:36:01;;;;;;;14.07;9.52;;;;;;;17.51;65.39;100489.44;4900732;28;96719;-80
2021/09/14 05:38:27;;;;;;;12.35;9.25;;;;;;;17.60;65.35;100495.97;4916868;28;96919;-80
2021/09/14 05:40:57;;;;;;;12.15;9.90;;;;;;;17.62;65.25;100492.25;4916377;28;101910;-80
2021/09/14 05:43:31;;;;;;;10.88;9.35;;;;;;;17.70;64.92;100502.44;4916175;28;101811;-80
2021/09/14 05:45:58;;;;;;;14.52;9.75;;;;;;;17.91;64.17;100496.78;4900576;28;96587;-80
2021/09/14 05:48:25;;;;;;;16.58;9.95;;;;;;;17.96;63.97;100482.28;4916641;28;96930;-80
2021/09/14 05:50:51;;;;;;;12.55;9.40;;;;;;;18.12;63.53;100476.00;4900762;28;98186;-80
2021/09/14 05:53:17;;;;;;;13.63;9.80;;;;;;;18.08;63.60;100470.03;4900642;28;100939;-80
2021/09/14 05:55:43;;;;;;;13.88;10.68;;;;;;;18.16;63.46;100473.06;4900738;28;96681;-81
2021/09/14 05:58:11;;;;;;;12.65;8.57;;;;;;;18.33;62.92;100475.50;4900247;28;96808;-81
2021/09/14 06:00:37;;;;;;;11.07;9.43;;;;;;;18.33;62.97;100485.28;4883931;28;101579;-80
2021/09/14 06:03:03;;;;;;;13.30;9.15;;;;;;;18.42;62.99;100497.97;4899717;28;101259;-80
2021/09/14 06:05:33;;;;;;;14.38;9.23;;;;;;;18.94;61.37;100494.63;4885928;28;96728;-80
2021/09/14 06:07:59;;;;;;;13.68;10.10;;;;;;;19.57;59.50;100474.38;4885055;28;97332;-80
2021/09/14 06:10:25;;;;;;;16.65;11.05;;;;;;;19.99;58.98;100491.03;4916095;28;101680;-80
2021/09/14 06:13:11;;;;;;;17.58;10.43;;;;;;;20.76;57.30;100496.19;4918833;28;101798;-81
2021/09/14 06:15:37;;;;;;;10.60;8.98;;;;;;;21.03;56.17;100487.94;4900513;28;96745;-81
2021/09/14 06:18:07;;;;;;;15.45;10.25;;;;;;;21.44;55.41;100495.50;4901449;28;96606;-81
2021/09/14 06:20:33;;;;;;;12.35;9.80;;;;;;;21.98;54.48;100491.31;4916024;28;101723;-81
2021/09/14 06:22:59;;;;;;;11.55;9.93;;;;;;;22.11;53.62;100489.38;4900174;28;101636;-81
2021/09/14 06:25:25;;;;;;;10.27;9.07;;;;;;;22.09;52.70;100487.81;4899748;28;96640;-81
2021/09/14 06:27:53;;;;;;;13.35;9.68;;;;;;;21.60;54.16;100494.31;4916624;28;96940;-81
2021/09/14 06:30:19;;;;;;;10.90;9.25;;;;;;;21.70;53.20;100488.16;4884178;28;101629;-81
2021/09/14 06:32:45;;;;;;;10.88;9.23;;;;;;;22.74;50.51;100486.97;4900111;28;101349;-81
2021/09/14 06:35:11;;;;;;;10.35;9.55;;;;;;;22.41;51.13;100495.09;4916391;28;96571;-81
2021/09/14 06:37:42;;;;;;;;;;;;;;;23.61;48.74;100499.38;4886280;28;96804;-81
2021/09/14 06:40:08;;;;;;;8.88;8.07;;;;;;;24.89;46.18;100499.75;4915931;28;101336;-81
2021/09/14 06:42:34;;;;;;;10.13;9.07;;;;;;;26.43;42.90;100495.88;4900052;28;101590;-81
2021/09/14 06:45:19;;;;;;;9.57;8.60;;;;;;;26.12;42.96;100489.97;4902879;28;96643;-81
2021/09/14 06:47:57;;;;;;;13.25;8.55;;;;;;;27.30;41.33;100497.09;4887395;28;96766;-81
2021/09/14 06:50:23;;;;;;;8.73;7.93;;;;;;;27.75;40.20;100492.53;4883206;28;101557;-81
2021/09/14 06:52:49;;;;;;;9.40;8.43;;;;;;;27.49;40.73;100490.69;4899569;28;101343;-81
2021/09/14 06:55:15;;;;;;;8.68;7.75;;;;;;;28.57;38.87;100496.50;4931930;28;96492;-81
2021/09/14 06:57:40;;;;;;;9.02;8.25;;;;;;;30.00;36.25;100486.19;4932405;28;96613;-82
2021/09/14 07:00:07;;;;;;;9.60;8.07;;;;;;;30.03;36.06;100487.72;4915405;28;98522;-82
2021/09/14 07:02:32;;;;;;;7.88;7.18;;;;;;;29.64;37.16;100489.34;4915062;28;101323;-82
2021/09/14 07:04:58;;;;;;;10.95;7.70;;;;;;;29.63;36.33;100481.41;4899655;28;96608;-81
2021/09/14 07:07:23;;;;;;;9.60;7.30;;;;;;;26.60;42.18;100491.53;4901584;28;96967;-92
2021/09/14 07:09:49;;;;;;;10.35;6.97;;;;;;;29.81;37.58;100489.28;4900603;28;101376;-92
2021/09/14 07:12:14;;;;;;;8.02;7.18;;;;;;;31.05;35.02;100486.66;4900473;28;100821;-91
2021/09/14 07:14:40;;;;;;;8.07;7.15;;;;;;;31.59;34.29;100485.69;4900545;28;96691;-93
2021/09/14 07:17:05;;;;;;;11.13;7.28;;;;;;;31.49;33.70;100485.13;4916846;28;96870;-85
2021/09/14 07:19:31;;;;;;;9.07;7.72;;;;;;;32.90;31.69;100489.47;4931447;28;101225;-84
2021/09/14 07:21:56;;;;;;;8.02;7.15;;;;;;;28.64;38.19;100492.13;4915540;28;98358;-84
2021/09/14 07:24:22;;;;;;;9.43;8.23;;;;;;;28.71;38.25;100496.84;4883211;28;96810;-84
2021/09/14 07:26:47;;;;;;;8.40;7.68;;;;;;;26.50;42.21;100500.66;4915560;28;97020;-84
2021/09/14 07:29:13;;;;;;;8.70;7.78;;;;;;;26.59;42.46;100495.25;4915318;28;97803;-84
2021/09/14 07:31:41;;;;;;;9.32;7.35;;;;;;;27.46;40.62;100491.00;4899336;28;101700;-84
2021/09/14 07:34:06;;;;;;;8.48;7.57;;;;;;;26.61;41.99;100505.84;4915436;28;96703;-86
2021/09/14 07:36:32;;;;;;;7.93;7.22;;;;;;;26.34;42.89;100509.38;4883584;28;96900;-84
2021/09/14 07:38:57;;;;;;;9.48;7.43;;;;;;;27.87;39.95;100499.41;4898937;28;97939;-84
2021/09/14 07:41:23;;;;;;;8.43;7.63;;;;;;;26.30;42.50;100502.63;4899023;28;98424;-85
2021/09/14 07:43:48;;;;;;;7.70;6.90;;;;;;;28.14;39.63;100505.59;4883581;28;96635;-84
2021/09/14 07:46:14;;;;;;;11.43;7.63;;;;;;;28.38;38.66;100502.97;4899698;28;97074;-85
2021/09/14 07:48:40;;;;;;;8.05;6.55;;;;;;;28.21;39.49;100503.94;4899689;28;97422;-85
2021/09/14 07:51:05;;;;;;;11.48;7.15;;;;;;;27.61;40.82;100512.00;4899103;28;97165;-85
2021/09/14 07:53:31;;;;;;;7.88;6.95;;;;;;;26.92;42.14;100505.50;4883449;28;96659;-86
2021/09/14 07:55:56;;;;;;;7.07;6.38;;;;;;;25.91;43.92;100508.16;4899648;28;96983;-85
2021/09/14 07:58:22;;;;;;;8.27;7.13;;;;;;;26.72;42.79;100508.31;4882454;28;100877;-85
2021/09/14 08:00:48;;;;;;;11.20;8.30;;;;;;;28.49;39.55;100509.97;4883046;28;101042;-85
2021/09/14 08:03:13;;;;;;;8.32;6.63;;;;;;;28.95;38.04;100506.88;4898921;28;96556;-87
2021/09/14 08:05:39;;;;;;;9.50;6.75;;;;;;;27.49;40.84;100512.25;4899049;28;96887;-86
2021/09/14 08:08:06;;;;;;;7.45;6.70;;;;;;;30.45;36.77;100501.75;4915285;28;98494;-87
2021/09/14 08:10:33;;;;;;;7.72;6.90;;;;;;;30.14;37.19;100509.81;4931326;28;101227;-87
2021/09/14 08:12:58;;;;;;;7.18;6.10;;;;;;;29.03;37.81;100505.06;4915606;28;96553;-88
2021/09/14 08:15:24;;;;;;;6.90;5.82;;;;;;;28.18;38.69;100512.34;4899967;28;96871;-87
2021/09/14 08:17:49;;;;;;;7.97;7.07;;;;;;;30.37;36.07;100511.78;4883127;28;101756;-87
2021/09/14 08:20:15;;;;;;;8.43;6.18;;;;;;;32.79;31.79;100509.88;4915333;28;98120;-87
2021/09/14 08:22:41;;;;;;;8.60;6.43;;;;;;;32.16;32.47;100514.09;4883664;28;96585;-87
2021/09/14 08:25:07;;;;;;;7.75;7.00;;;;;;;33.66;31.20;100506.09;4914830;28;96892;-87
2021/09/14 08:27:33;;;;;;;6.80;6.20;;;;;;;34.56;30.22;100508.91;4882340;28;101566;-88
2021/09/14 08:29:58;;;;;;;7.05;6.22;;;;;;;35.82;28.35;100507.16;4914969;28;98348;-86
2021/09/14 08:32:24;;;;;;;7.63;5.82;;;;;;;36.33;27.46;100499.22;4915200;28;96525;-86
2021/09/14 08:34:49;;;;;;;7.20;6.25;;;;;;;36.15;27.23;100505.41;4899105;28;96882;-86
2021/09/14 08:37:15;;;;;;;8.73;6.20;;;;;;;35.84;27.68;100501.50;4898765;28;97517;-86
2021/09/14 08:39:41;;;;;;;8.98;6.72;;;;;;;35.42;28.36;100497.31;4914874;28;98043;-86
2021/09/14 08:42:06;;;;;;;9.32;7.43;;;;;;;36.89;26.31;100493.91;4914833;28;96808;-87
2021/09/14 08:44:35;;;;;;;8.63;7.05;;;;;;;36.40;26.69;100498.16;4931595;28;96961;-87
2021/09/14 08:47:03;;;;;;;7.70;6.38;;;;;;;32.94;29.82;100504.38;4898494;28;101407;-87
2021/09/14 08:49:28;;;;;;;7.78;7.07;;;;;;;32.82;31.32;100493.19;4930169;28;101394;-86
2021/09/14 08:51:55;;;;;;;8.20;6.55;;;;;;;32.72;30.88;100487.22;4914349;28;96605;-87
2021/09/14 08:54:21;;;;;;;7.30;6.65;;;;;;;33.19;31.79;100499.41;4930842;28;96894;-88
2021/09/14 08:56:46;;;;;;;7.70;6.82;;;;;;;34.36;30.22;100496.03;4898132;28;101317;-86
2021/09/14 08:59:12;;;;;;;8.18;7.03;;;;;;;33.71;29.79;100487.28;4915172;28;98120;-92
2021/09/14 09:01:38;;;;;;;8.18;7.38;;;;;;;33.96;29.80;100487.66;4914558;28;96620;-87
2021/09/14 09:04:05;;;;;;;9.90;7.65;;;;;;;35.46;28.00;100483.03;4898379;28;96897;-89
2021/09/14 09:06:38;;;;;;;6.63;6.13;;;;;;;35.45;26.46;100491.44;4897925;28;101177;-86
2021/09/14 09:09:25;;;;;;;7.45;6.70;;;;;;;35.48;27.03;100480.09;4930405;28;101224;-84
2021/09/14 09:11:53;;;;;;;7.60;6.93;;;;;;;35.30;27.48;100480.75;4930454;28;96583;-84
2021/09/14 09:14:18;;;;;;;7.93;7.13;;;;;;;35.77;27.26;100487.00;4930315;28;96930;-83
2021/09/14 09:16:44;;;;;;;8.15;7.55;;;;;;;35.91;27.23;100482.34;4897688;28;101619;-87
2021/09/14 09:19:09;;;;;;;7.68;7.03;;;;;;;35.78;27.17;100477.75;4914403;28;97974;-87
2021/09/14 09:21:39;;;;;;;7.22;6.63;;;;;;;35.77;26.86;100481.53;4897904;28;96752;-86
2021/09/14 09:24:11;;;;;;;7.68;7.03;;;;;;;35.62;27.16;100489.13;4914232;28;97033;-86
2021/09/14 09:26:38;;;;;;;7.45;6.78;;;;;;;34.99;27.75;100487.59;4882083;28;101547;-88
2021/09/14 09:29:06;;;;;;;10.20;6.93;;;;;;;34.17;29.25;100485.91;4882255;28;99694;-85
2021/09/14 09:31:33;;;;;;;7.87;6.80;;;;;;;35.48;27.46;100475.47;4929918;28;96739;-88
2021/09/14 09:34:09;;;;;;;8.43;7.72;;;;;;;35.74;27.68;100482.81;4930732;28;96885;-87
2021/09/14 09:36:37;;;;;;;7.75;7.22;;;;;;;36.09;27.04;100473.50;4930670;28;98081;-86
2021/09/14 09:39:05;;;;;;;7.43;6.93;;;;;;;36.26;25.13;100480.16;4916640;28;101098;-83
2021/09/14 09:41:35;;;;;;;7.80;6.50;;;;;;;35.37;27.27;100478.84;4900230;28;96649;-82
2021/09/14 09:44:12;;;;;;;6.40;5.80;;;;;;;35.49;27.34;100476.28;4901256;28;97031;-82
2021/09/14 09:46:39;;;;;;;12.45;6.78;;;;;;;36.73;25.94;100467.09;4932843;28;98431;-82
2021/09/14 09:49:06;;;;;;;6.72;6.20;;;;;;;36.09;26.60;100468.03;4900765;28;97617;-83
2021/09/14 09:51:33;;;;;;;6.85;6.25;;;;;;;35.83;26.68;100467.03;4932967;28;96625;-82
2021/09/14 09:53:58;;;;;;;7.40;6.80;;;;;;;35.66;26.71;100469.38;4933267;28;96807;-82
2021/09/14 09:56:24;;;;;;;8.70;7.28;;;;;;;35.85;26.41;100466.81;4932790;28;97570;-83
2021/09/14 09:58:51;;;;;;;8.25;6.40;;;;;;;35.86;26.78;100457.56;4900451;28;98078;-82
2021/09/14 10:01:19;;;;;;;7.72;7.00;;;;;;;35.92;26.07;100459.44;4932517;28;96604;-82
2021/09/14 10:04:16;;;;;;;7.03;6.40;;;;;;;35.53;27.32;100459.31;4916492;28;96939;-82
2021/09/14 10:06:46;;;;;;;6.93;6.28;;;;;;;36.29;25.78;100452.38;4891815;28;101534;-80
2021/09/14 10:09:12;;;;;;;6.95;6.45;;;;;;;35.31;27.12;100458.69;4932796;28;97311;-80
2021/09/14 10:11:38;;;;;;;9.70;7.55;;;;;;;34.41;28.10;100458.13;4917814;28;96541;-80
2021/09/14 10:14:06;;;;;;;6.88;6.28;;;;;;;33.90;29.73;100457.66;4932951;28;96958;-76
2021/09/14 10:16:35;;;;;;;9.07;6.72;;;;;;;33.30;29.77;100463.53;4916351;28;97940;-76
2021/09/14 10:19:26;;;;;;;9.27;6.07;;;;;;;32.66;30.84;100456.22;4932296;28;97327;-76
2021/09/14 10:22:06;;;;;;;8.57;6.85;;;;;;;32.50;31.72;100450.22;4916655;28;96679;-76
2021/09/14 10:24:33;;;;;;;7.40;6.05;;;;;;;32.35;31.53;100458.34;4901135;28;96973;-76
2021/09/14 10:27:10;;;;;;;6.18;4.75;;;;;;;31.86;31.86;100457.09;4932048;28;99873;-76
2021/09/14 10:29:36;;;;;;;6.90;6.15;;;;;;;31.67;32.14;100447.63;4917344;28;97603;-76
2021/09/14 10:32:10;;;;;;;6.85;6.20;;;;;;;30.89;33.35;100447.00;4900094;28;96551;-75
2021/09/14 10:34:42;;;;;;;10.18;5.25;;;;;;;31.12;33.25;100456.94;4900509;28;96650;-76
2021/09/14 10:37:09;;;;;;;6.85;5.75;;;;;;;31.23;33.10;100455.69;4916209;28;97961;-76
2021/09/14 10:39:37;;;;;;;10.35;6.47;;;;;;;30.56;33.99;100456.34;4883879;28;101436;-75
2021/09/14 10:42:18;;;;;;;8.02;5.95;;;;;;;30.47;33.86;100457.41;4932380;28;96528;-75
2021/09/14 10:44:49;;;;;;;6.97;6.30;;;;;;;29.97;35.61;100446.81;4932192;28;96687;-75
2021/09/14 10:47:20;;;;;;;7.88;6.78;;;;;;;29.54;36.15;100451.63;4916588;28;98186;-75
2021/09/14 10:49:54;;;;;;;7.07;6.35;;;;;;;28.76;36.83;100462.94;4932034;28;101045;-75
2021/09/14 10:52:34;;;;;;;6.35;5.85;;;;;;;28.05;38.00;100458.00;4917311;28;96514;-75
2021/09/14 10:55:09;;;;;;;7.10;6.50;;;;;;;27.67;38.69;100452.91;4884130;28;96887;-75
2021/09/14 10:57:36;;;;;;;7.88;7.15;;;;;;;27.45;39.46;100459.66;4931628;28;97602;-75
2021/09/14 11:00:05;;;;;;;7.10;6.40;;;;;;;27.06;39.82;100453.78;4915173;28;97622;-75
2021/09/14 11:02:30;;;;;;;7.20;6.57;;;;;;;27.08;40.15;100462.53;4899662;28;96717;-75
2021/09/14 11:05:00;;;;;;;6.88;6.15;;;;;;;27.48;39.62;100462.03;4899932;28;96630;-75
2021/09/14 11:07:27;;;;;;;7.20;6.47;;;;;;;27.45;39.38;100451.56;4931170;28;101494;-75
2021/09/14 11:09:55;;;;;;;8.18;6.53;;;;;;;27.22;40.20;100453.94;4916249;28;97369;-78
2021/09/14 11:12:25;;;;;;;8.90;6.60;;;;;;;27.59;39.85;100452.84;4931511;28;96850;-77
2021/09/14 11:14:52;;;;;;;6.88;5.80;;;;;;;27.73;40.27;100456.81;4931845;28;96570;-77
2021/09/14 11:17:26;;;;;;;6.22;5.60;;;;;;;27.61;40.06;100452.69;4931521;28;97515;-78
2021/09/14 11:19:52;;;;;;;7.00;6.25;;;;;;;27.34;40.53;100454.53;4931281;28;98780;-78
2021/09/14 11:22:37;;;;;;;6.60;6.00;;;;;;;27.07;40.44;100450.91;4914748;28;96611;-79
2021/09/14 11:25:04;;;;;;;8.20;6.57;;;;;;;27.11;40.26;100443.38;4931595;28;96601;-79
2021/09/14 11:27:29;;;;;;;7.13;6.45;;;;;;;26.93;40.99;100447.94;4916441;28;98234;-79
2021/09/14 11:29:59;;;;;;;7.03;5.57;;;;;;;26.83;41.21;100440.78;4916260;28;97471;-78
2021/09/14 11:32:26;;;;;;;7.30;5.88;;;;;;;26.86;40.97;100432.41;4931064;28;96781;-77
2021/09/14 11:34:53;;;;;;;8.32;6.13;;;;;;;26.81;41.16;100445.47;4915877;28;96807;-78
2021/09/14 11:37:29;;;;;;;8.05;6.35;;;;;;;26.62;41.32;100435.72;4916644;28;97520;-79
2021/09/14 11:39:55;;;;;;;6.53;5.93;;;;;;;26.70;41.16;100440.31;4883422;28;101246;-78
2021/09/14 11:42:20;;;;;;;6.65;5.95;;;;;;;26.51;42.06;100444.00;4915373;28;96709;-78
2021/09/14 11:44:46;;;;;;;7.60;6.43;;;;;;;26.67;41.53;100440.63;4899575;28;96991;-85
2021/09/14 11:47:12;;;;;;;8.90;6.07;;;;;;;26.45;41.97;100425.75;4898656;28;101729;-85
2021/09/14 11:49:37;;;;;;;6.60;6.10;;;;;;;26.46;42.34;100434.66;4914898;28;100514;-85
2021/09/14 11:52:04;;;;;;;6.97;6.15;;;;;;;26.58;41.78;100430.78;4883193;28;96546;-85
2021/09/14 11:54:35;;;;;;;8.05;6.22;;;;;;;26.74;41.00;100435.50;4883336;28;97174;-85
2021/09/14 11:57:01;;;;;;;9.02;5.93;;;;;;;26.54;41.66;100432.09;4914488;28;101561;-83
2021/09/14 11:59:32;;;;;;;6.30;5.40;;;;;;;26.57;42.05;100421.88;4913628;28;98149;-83
2021/09/14 12:01:58;;;;;;;7.00;6.30;;;;;;;26.67;42.23;100427.16;4899089;28;96655;-83
2021/09/14 12:04:24;;;;;;;12.07;6.38;;;;;;;26.73;42.40;100423.84;4916780;28;96853;-85
2021/09/14 12:06:51;;;;;;;6.85;5.70;;;;;;;26.54;42.25;100419.47;4914734;28;101681;-85
2021/09/14 12:09:18;;;;;;;7.13;5.43;;;;;;;26.72;41.90;100424.03;4914846;28;97694;-82
2021/09/14 12:11:43;;;;;;;8.57;6.22;;;;;;;26.49;41.69;100420.91;4931032;28;96615;-83
2021/09/14 12:14:11;;;;;;;8.30;5.90;;;;;;;26.43;41.54;100425.06;4915026;28;96756;-84
2021/09/14 12:16:41;;;;;;;7.28;5.70;;;;;;;26.38;42.06;100419.28;4914619;28;98328;-84